Time;durP1;ratioP1;P1;durP2;ratioP2;P2;SDS_P1;SDS_P2;PMS_P1;PMS_P2;Temp;Humidity;BMP_temperature;BMP_pressure;BME280_temperature;BME280_humidity;BME280_pressure;Samples;Min_cycle;Max_cycle;Signal;HPM_P1;HPM_P2
2023/09/06 00:01:04;;;;;;;22.67;14.67;;;17.80;99.90;;;;;;4989490;28;20666;-85
2023/09/06 00:03:12;;;;;;;21.70;13.20;;;17.80;99.90;;;;;;4997126;28;20218;-84
2023/09/06 00:05:41;;;;;;;24.23;14.73;;;17.80;99.90;;;;;;5006005;28;20274;-84
2023/09/06 00:08:16;;;;;;;20.53;15.53;;;17.90;99.90;;;;;;5004289;28;20636;-84
2023/09/06 00:10:43;;;;;;;23.93;16.27;;;17.90;99.90;;;;;;5025832;28;20776;-84
2023/09/06 00:13:10;;;;;;;28.30;16.40;;;17.90;99.90;;;;;;5026203;28;20207;-86
2023/09/06 00:15:36;;;;;;;24.23;14.00;;;17.90;99.90;;;;;;5024765;28;20218;-85
2023/09/06 00:18:05;;;;;;;21.93;15.43;;;17.80;99.90;;;;;;5009385;28;20686;-85
2023/09/06 00:20:34;;;;;;;22.33;14.97;;;17.80;99.90;;;;;;5025919;28;20582;-85
2023/09/06 00:23:02;;;;;;;20.73;14.57;;;17.80;99.90;;;;;;5025460;28;20211;-84
2023/09/06 00:25:31;;;;;;;20.57;15.43;;;17.80;99.90;;;;;;5026037;28;20635;-85
2023/09/06 00:28:00;;;;;;;17.20;13.00;;;17.80;99.90;;;;;;5005335;28;20223;-85
2023/09/06 00:30:26;;;;;;;21.63;14.77;;;17.80;99.90;;;;;;5021414;28;20241;-85
2023/09/06 00:32:54;;;;;;;22.33;14.73;;;17.70;99.90;;;;;;5008987;28;20246;-85
2023/09/06 00:35:22;;;;;;;19.37;13.67;;;17.60;99.90;;;;;;5025207;28;20206;-84
2023/09/06 00:37:48;;;;;;;18.87;13.60;;;17.60;99.90;;;;;;5026771;28;20191;-84
2023/09/06 00:40:22;;;;;;;21.13;14.87;;;17.50;99.90;;;;;;5025715;28;20268;-84
2023/09/06 00:42:52;;;;;;;19.97;13.03;;;17.40;99.90;;;;;;5024476;28;20233;-86
2023/09/06 00:45:23;;;;;;;21.23;13.57;;;17.30;99.90;;;;;;5009409;28;20243;-84
2023/09/06 00:47:55;;;;;;;20.30;13.17;;;17.30;99.90;;;;;;5025374;28;20305;-85
2023/09/06 00:50:21;;;;;;;19.37;14.53;;;17.20;99.90;;;;;;5028950;28;20207;-86
2023/09/06 00:52:49;;;;;;;19.50;13.30;;;17.20;99.90;;;;;;5012835;28;20178;-84
2023/09/06 00:55:14;;;;;;;23.37;12.90;;;17.30;99.90;;;;;;5012286;28;20191;-84
2023/09/06 00:57:41;;;;;;;18.43;13.53;;;17.40;99.90;;;;;;5028703;28;20240;-84
2023/09/06 01:00:14;;;;;;;20.73;13.90;;;17.30;99.90;;;;;;5012630;28;20214;-85
2023/09/06 01:02:40;;;;;;;16.93;11.83;;;17.20;99.90;;;;;;5029495;28;20733;-84
2023/09/06 01:05:06;;;;;;;19.93;12.80;;;17.10;99.90;;;;;;5029007;28;20206;-84
2023/09/06 01:07:34;;;;;;;20.90;14.17;;;17.10;99.90;;;;;;5029638;28;20294;-84
2023/09/06 01:10:03;;;;;;;17.40;13.10;;;17.10;99.90;;;;;;5028772;28;20234;-84
2023/09/06 01:12:29;;;;;;;16.60;11.97;;;17.10;99.90;;;;;;5012832;28;20317;-83
2023/09/06 01:14:55;;;;;;;17.23;11.73;;;17.10;99.90;;;;;;5012485;28;20305;-85
2023/09/06 01:17:24;;;;;;;16.33;11.60;;;17.10;99.90;;;;;;5012720;28;20253;-84
2023/09/06 01:19:57;;;;;;;19.27;13.17;;;17.10;99.90;;;;;;5028647;28;20209;-85
2023/09/06 01:22:36;;;;;;;20.90;13.13;;;17.10;99.90;;;;;;5030557;28;20183;-84
2023/09/06 01:25:02;;;;;;;16.60;12.23;;;17.00;99.90;;;;;;5028544;28;20577;-84
2023/09/06 01:27:28;;;;;;;17.73;12.73;;;17.00;99.90;;;;;;5011368;28;20627;-84
2023/09/06 01:29:54;;;;;;;20.57;13.00;;;17.00;99.90;;;;;;5011673;28;20304;-83
2023/09/06 01:32:19;;;;;;;18.77;13.63;;;16.90;99.90;;;;;;5011603;28;20210;-85
2023/09/06 01:34:45;;;;;;;19.13;13.10;;;16.90;99.90;;;;;;4995178;28;20277;-87
2023/09/06 01:37:11;;;;;;;16.53;10.47;;;16.90;99.90;;;;;;5012660;28;20237;-83
2023/09/06 01:39:37;;;;;;;19.53;14.00;;;16.80;99.90;;;;;;5012004;28;20221;-84
2023/09/06 01:42:03;;;;;;;19.23;13.07;;;16.80;99.90;;;;;;5027021;28;20317;-86
2023/09/06 01:44:31;;;;;;;19.17;12.80;;;16.60;99.90;;;;;;5011239;28;20268;-84
2023/09/06 01:46:57;;;;;;;18.37;12.17;;;16.70;99.90;;;;;;5011935;28;20210;-83
2023/09/06 01:49:23;;;;;;;18.20;14.30;;;16.70;99.90;;;;;;5004696;28;20221;-85
2023/09/06 01:51:49;;;;;;;18.90;12.33;;;16.80;99.90;;;;;;5027680;28;20276;-83
2023/09/06 01:54:16;;;;;;;15.53;11.43;;;16.60;99.90;;;;;;4993695;28;20329;-84
2023/09/06 01:56:42;;;;;;;15.10;10.87;;;16.40;99.90;;;;;;5029258;28;20797;-84
2023/09/06 01:59:08;;;;;;;17.53;12.10;;;16.30;99.90;;;;;;5010949;28;20220;-84
2023/09/06 02:01:33;;;;;;;18.10;12.73;;;16.30;99.90;;;;;;5011235;28;20290;-87
2023/09/06 02:04:01;;;;;;;17.83;12.67;;;16.20;99.90;;;;;;5012018;28;20282;-84
2023/09/06 02:06:27;;;;;;;16.00;10.83;;;16.20;99.90;;;;;;5026779;28;20221;-84
2023/09/06 02:08:52;;;;;;;15.67;11.33;;;16.20;99.90;;;;;;5011870;28;20635;-85
2023/09/06 02:11:18;;;;;;;17.33;11.13;;;16.30;99.90;;;;;;5011452;28;20241;-84
2023/09/06 02:13:44;;;;;;;16.50;11.43;;;16.20;99.90;;;;;;5011087;28;20191;-84
2023/09/06 02:16:12;;;;;;;15.50;10.83;;;16.10;99.90;;;;;;5012186;28;20213;-85
2023/09/06 02:18:37;;;;;;;17.23;12.10;;;16.00;99.90;;;;;;5011592;28;20757;-84
2023/09/06 02:21:03;;;;;;;20.73;11.80;;;16.00;99.90;;;;;;5011043;28;20305;-84
2023/09/06 02:23:29;;;;;;;19.93;11.83;;;15.90;99.90;;;;;;5027890;28;20628;-84
2023/09/06 02:25:56;;;;;;;16.33;11.43;;;15.90;99.90;;;;;;5011028;28;20210;-85
2023/09/06 02:28:22;;;;;;;20.07;11.70;;;15.90;99.90;;;;;;5011579;28;20206;-86
2023/09/06 02:30:48;;;;;;;14.17;11.07;;;16.00;99.90;;;;;;5011377;28;20211;-83
2023/09/06 02:33:14;;;;;;;20.57;12.53;;;16.00;99.90;;;;;;5011033;28;20242;-86
2023/09/06 02:35:40;;;;;;;14.63;11.30;;;16.00;99.90;;;;;;5011015;28;20210;-84
2023/09/06 02:38:15;;;;;;;14.37;11.63;;;15.90;99.90;;;;;;5010355;28;20226;-84
2023/09/06 02:40:41;;;;;;;13.03;10.50;;;15.90;99.90;;;;;;5027523;28;20654;-85
2023/09/06 02:43:07;;;;;;;15.33;11.17;;;15.80;99.90;;;;;;5011622;28;20236;-86
2023/09/06 02:45:39;;;;;;;18.00;11.40;;;15.70;99.90;;;;;;5027283;28;20254;-85
2023/09/06 02:48:16;;;;;;;13.60;11.00;;;15.60;99.90;;;;;;4995722;28;20295;-84
2023/09/06 02:50:41;;;;;;;18.33;11.23;;;15.60;99.90;;;;;;5012049;28;20678;-85
2023/09/06 02:53:19;;;;;;;16.07;12.03;;;15.60;99.90;;;;;;5003241;28;20264;-87
2023/09/06 02:55:53;;;;;;;17.67;12.63;;;15.70;99.90;;;;;;5012605;28;20249;-86
2023/09/06 02:58:26;;;;;;;21.47;12.93;;;15.70;99.90;;;;;;5026711;28;20182;-84
2023/09/06 03:00:57;;;;;;;12.83;9.90;;;15.70;99.90;;;;;;5027255;28;20249;-84
2023/09/06 03:03:26;;;;;;;18.77;13.03;;;15.70;99.90;;;;;;5011057;28;20214;-84
2023/09/06 03:05:56;;;;;;;15.07;11.37;;;15.70;99.90;;;;;;5026234;28;20499;-85
2023/09/06 03:08:25;;;;;;;15.23;11.90;;;15.70;99.90;;;;;;5042611;28;20563;-85
2023/09/06 03:10:52;;;;;;;17.00;11.30;;;15.80;99.90;;;;;;5010253;28;20234;-85
2023/09/06 03:13:20;;;;;;;14.77;10.50;;;15.80;99.90;;;;;;5042699;28;20310;-85
2023/09/06 03:15:46;;;;;;;17.77;11.67;;;15.70;99.90;;;;;;5010406;28;20250;-84
2023/09/06 03:18:12;;;;;;;14.23;10.43;;;15.70;99.90;;;;;;5026051;28;20225;-87
2023/09/06 03:20:43;;;;;;;16.60;11.60;;;15.70;99.90;;;;;;5009797;28;20699;-85
2023/09/06 03:23:17;;;;;;;17.40;10.07;;;15.70;99.90;;;;;;5026394;28;20206;-84
2023/09/06 03:25:57;;;;;;;16.73;12.33;;;15.70;99.90;;;;;;5026273;28;20282;-87
2023/09/06 03:28:28;;;;;;;17.73;11.33;;;15.70;99.90;;;;;;5011181;28;20202;-85
2023/09/06 03:30:58;;;;;;;15.37;12.10;;;15.80;99.90;;;;;;5025333;28;20596;-84
2023/09/06 03:33:27;;;;;;;20.10;10.90;;;15.80;99.90;;;;;;5009097;28;20217;-85
2023/09/06 03:35:53;;;;;;;15.13;10.30;;;15.80;99.90;;;;;;5025904;28;20550;-85
2023/09/06 03:38:25;;;;;;;15.80;11.37;;;15.80;99.90;;;;;;5026484;28;20356;-85
2023/09/06 03:40:50;;;;;;;15.60;10.80;;;15.80;99.90;;;;;;5010418;28;20674;-84
2023/09/06 03:43:19;;;;;;;16.97;9.97;;;15.70;99.90;;;;;;5010287;28;20175;-84
2023/09/06 03:45:55;;;;;;;14.57;11.60;;;15.70;99.90;;;;;;5009925;28;20223;-84
2023/09/06 03:48:23;;;;;;;15.43;11.20;;;15.80;99.90;;;;;;5010600;28;20221;-84
2023/09/06 03:50:53;;;;;;;13.47;10.73;;;15.80;99.90;;;;;;5042393;28;20226;-84
2023/09/06 03:53:19;;;;;;;12.83;10.10;;;15.90;99.90;;;;;;5026136;28;20210;-84
2023/09/06 03:55:47;;;;;;;15.77;10.60;;;15.80;99.90;;;;;;5026383;28;20639;-87
2023/09/06 03:58:13;;;;;;;18.80;10.70;;;15.90;99.90;;;;;;5026303;28;20667;-85
2023/09/06 04:00:42;;;;;;;16.20;12.00;;;16.10;99.90;;;;;;5009308;28;20238;-84
2023/09/06 04:03:07;;;;;;;13.93;10.83;;;16.10;99.90;;;;;;5009710;28;20576;-85
2023/09/06 04:05:34;;;;;;;15.23;11.10;;;16.10;99.90;;;;;;5009531;28;20226;-84
2023/09/06 04:08:06;;;;;;;13.07;11.13;;;16.10;99.90;;;;;;5025910;28;20795;-84
2023/09/06 04:10:44;;;;;;;12.80;10.57;;;16.00;99.90;;;;;;5025358;28;20230;-86
2023/09/06 04:13:11;;;;;;;12.23;10.60;;;15.90;99.90;;;;;;5011096;28;20186;-83
2023/09/06 04:15:38;;;;;;;13.27;9.33;;;15.90;99.90;;;;;;4993050;28;20234;-85
2023/09/06 04:18:06;;;;;;;12.50;8.77;;;15.80;99.90;;;;;;5008154;28;20308;-85
2023/09/06 04:20:38;;;;;;;21.93;10.43;;;15.70;99.90;;;;;;5009549;28;20583;-85
2023/09/06 04:23:06;;;;;;;14.30;9.60;;;15.70;99.90;;;;;;5024578;28;20225;-85
2023/09/06 04:25:44;;;;;;;15.53;10.93;;;15.70;99.90;;;;;;5025027;28;20266;-85
2023/09/06 04:28:15;;;;;;;17.30;10.67;;;15.70;99.90;;;;;;5026418;28;20712;-84
2023/09/06 04:30:43;;;;;;;11.40;8.13;;;15.70;99.90;;;;;;5025760;28;20219;-85
2023/09/06 04:33:13;;;;;;;10.10;8.13;;;15.50;99.90;;;;;;5024812;28;20207;-85
2023/09/06 04:35:44;;;;;;;11.93;8.97;;;15.20;99.90;;;;;;5009833;28;20249;-84
2023/09/06 04:38:14;;;;;;;12.43;9.07;;;15.00;99.90;;;;;;5025261;28;20210;-84
2023/09/06 04:40:43;;;;;;;12.57;8.17;;;15.00;99.90;;;;;;5025634;28;20182;-86
2023/09/06 04:43:09;;;;;;;12.43;7.37;;;15.10;99.90;;;;;;4993430;28;20193;-87
2023/09/06 04:45:38;;;;;;;9.70;7.97;;;15.10;99.90;;;;;;5026880;28;20707;-83
2023/09/06 04:48:09;;;;;;;10.20;7.57;;;15.10;99.90;;;;;;5009137;28;20703;-84
2023/09/06 04:50:39;;;;;;;11.10;8.90;;;15.10;99.90;;;;;;5025203;28;20264;-85
2023/09/06 04:53:07;;;;;;;13.23;9.33;;;15.00;99.90;;;;;;5008701;28;20230;-84
2023/09/06 04:55:35;;;;;;;11.43;7.87;;;15.10;99.90;;;;;;5009361;28;20193;-84
2023/09/06 04:58:05;;;;;;;12.93;9.13;;;15.10;99.90;;;;;;5025483;28;20182;-84
2023/09/06 05:00:35;;;;;;;10.83;8.63;;;15.10;99.90;;;;;;5024293;28;20273;-84
2023/09/06 05:03:01;;;;;;;11.30;8.13;;;15.10;99.90;;;;;;5008957;28;20218;-84
2023/09/06 05:05:27;;;;;;;11.83;7.63;;;15.10;99.90;;;;;;5008824;28;21069;-85
2023/09/06 05:07:53;;;;;;;10.83;8.20;;;15.10;99.90;;;;;;5025484;28;20230;-86
2023/09/06 05:10:19;;;;;;;8.60;7.13;;;15.00;99.90;;;;;;5025399;28;20197;-86
2023/09/06 05:12:45;;;;;;;23.67;8.33;;;15.10;99.90;;;;;;5025248;28;20320;-84
2023/09/06 05:15:12;;;;;;;57.90;8.87;;;15.30;99.90;;;;;;5024931;28;20233;-84
2023/09/06 05:17:42;;;;;;;14.17;8.27;;;15.80;99.90;;;;;;5025115;28;20215;-85
2023/09/06 05:20:33;;;;;;;13.73;9.37;;;16.40;99.90;;;;;;5008337;28;20280;-87
2023/09/06 05:23:02;;;;;;;15.73;9.60;;;17.20;99.90;;;;;;5023935;28;20218;-83
2023/09/06 05:25:28;;;;;;;14.57;10.60;;;16.90;99.90;;;;;;5026196;28;20186;-84
2023/09/06 05:27:58;;;;;;;11.50;9.00;;;16.60;99.90;;;;;;5007899;28;20233;-84
2023/09/06 05:30:25;;;;;;;10.47;8.33;;;16.60;99.90;;;;;;5024519;28;20210;-84
2023/09/06 05:32:50;;;;;;;9.00;7.77;;;16.60;99.90;;;;;;5008693;28;20687;-84
2023/09/06 05:35:16;;;;;;;11.50;8.47;;;16.50;99.90;;;;;;5026540;28;20214;-84
2023/09/06 05:37:42;;;;;;;12.97;8.17;;;16.40;99.90;;;;;;5027764;28;20226;-84
2023/09/06 05:40:08;;;;;;;12.23;7.87;;;16.40;99.90;;;;;;5012596;28;20587;-84
2023/09/06 05:42:35;;;;;;;9.13;7.53;;;16.60;99.90;;;;;;5028130;28;20762;-85
2023/09/06 05:45:01;;;;;;;9.20;8.10;;;16.60;99.90;;;;;;5011641;28;20631;-86
2023/09/06 05:47:26;;;;;;;12.67;9.43;;;16.50;99.90;;;;;;5011848;28;20215;-85
2023/09/06 05:49:55;;;;;;;18.57;8.73;;;16.50;99.90;;;;;;5011904;28;20257;-85
2023/09/06 05:52:22;;;;;;;19.37;9.97;;;16.40;99.90;;;;;;5012221;28;21180;-83
2023/09/06 05:54:48;;;;;;;9.50;8.50;;;16.50;99.90;;;;;;5012079;28;20997;-83
2023/09/06 05:57:14;;;;;;;14.60;9.97;;;16.80;99.90;;;;;;5027576;28;20235;-85
2023/09/06 05:59:40;;;;;;;18.93;12.90;;;18.30;99.90;;;;;;5011621;28;20214;-84
2023/09/06 06:02:07;;;;;;;33.43;17.60;;;20.20;99.90;;;;;;5027987;28;20219;-83
2023/09/06 06:04:34;;;;;;;16.63;12.00;;;22.00;99.90;;;;;;5029173;28;20209;-83
2023/09/06 06:07:00;;;;;;;11.07;9.73;;;23.70;99.90;;;;;;5027667;28;20186;-84
2023/09/06 06:09:25;;;;;;;11.10;6.93;;;24.50;99.90;;;;;;5027550;28;21344;-84
2023/09/06 06:11:54;;;;;;;8.57;6.17;;;24.90;99.90;;;;;;5010011;28;20223;-84
2023/09/06 06:14:22;;;;;;;7.60;6.17;;;25.00;99.90;;;;;;5011259;28;20225;-84
2023/09/06 06:16:48;;;;;;;6.30;5.70;;;26.00;99.90;;;;;;5011126;28;20182;-84
2023/09/06 06:19:14;;;;;;;6.40;4.93;;;26.10;99.90;;;;;;5027966;28;20197;-83
2023/09/06 06:21:40;;;;;;;6.18;4.60;;;25.50;99.90;;;;;;5026810;28;20567;-83
2023/09/06 06:24:09;;;;;;;6.55;4.97;;;23.90;99.90;;;;;;5027509;28;20214;-83
2023/09/06 06:26:35;;;;;;;5.50;4.93;;;22.50;99.90;;;;;;5011082;28;20222;-83
2023/09/06 06:29:01;;;;;;;5.82;4.68;;;21.20;99.90;;;;;;5027209;28;20241;-83
2023/09/06 06:31:28;;;;;;;5.43;4.10;;;20.50;99.90;;;;;;5010563;28;20187;-83
2023/09/06 06:33:54;;;;;;;5.07;4.50;;;20.00;99.90;;;;;;5010234;28;20645;-83
2023/09/06 06:36:21;;;;;;;6.10;4.63;;;19.70;99.90;;;;;;4994276;28;20563;-84
2023/09/06 06:38:46;;;;;;;6.23;4.57;;;19.50;99.90;;;;;;5027014;28;20229;-84
2023/09/06 06:41:22;;;;;;;7.00;5.37;;;19.40;99.90;;;;;;5010846;28;20218;-85
2023/09/06 06:43:49;;;;;;;9.83;5.10;;;19.50;99.90;;;;;;5028236;28;20225;-85
2023/09/06 06:46:25;;;;;;;6.47;5.87;;;19.40;99.90;;;;;;5027525;28;20183;-85
2023/09/06 06:48:51;;;;;;;6.70;5.67;;;19.90;99.90;;;;;;5026377;28;21217;-85
2023/09/06 06:51:17;;;;;;;6.07;5.40;;;21.10;99.90;;;;;;5010090;28;20218;-85
2023/09/06 06:53:43;;;;;;;5.80;4.77;;;22.50;99.90;;;;;;5010175;28;20226;-84
2023/09/06 06:56:08;;;;;;;6.13;4.40;;;23.60;99.90;;;;;;4993095;28;21172;-85
2023/09/06 06:58:34;;;;;;;5.63;4.22;;;25.00;99.90;;;;;;5026980;28;20233;-85
2023/09/06 07:01:00;;;;;;;4.47;3.70;;;25.30;99.90;;;;;;5020198;28;20210;-86
2023/09/06 07:03:26;;;;;;;4.35;3.95;;;25.70;99.90;;;;;;5009656;28;20678;-86
2023/09/06 07:05:52;;;;;;;6.80;4.15;;;25.90;99.90;;;;;;5027174;28;20824;-85
2023/09/06 07:08:18;;;;;;;4.57;3.90;;;26.80;99.90;;;;;;5010149;28;20295;-86
2023/09/06 07:10:43;;;;;;;5.88;3.63;;;28.10;99.90;;;;;;5010154;28;20226;-86
2023/09/06 07:13:10;;;;;;;4.05;3.40;;;28.60;99.90;;;;;;4994382;28;20213;-86
2023/09/06 07:15:36;;;;;;;7.38;3.50;;;28.60;99.90;;;;;;5009746;28;20219;-86
2023/09/06 07:18:06;;;;;;;5.20;3.22;;;28.50;99.90;;;;;;5009254;28;20211;-85
2023/09/06 07:20:32;;;;;;;4.90;3.45;;;27.90;99.90;;;;;;4995040;28;20310;-86
2023/09/06 07:22:58;;;;;;;6.65;3.10;;;27.80;99.90;;;;;;5009314;28;20320;-87
2023/09/06 07:25:24;;;;;;;4.35;3.50;;;27.80;99.90;;;;;;5010961;28;20232;-86
2023/09/06 07:27:49;;;;;;;4.28;3.30;;;27.70;99.90;;;;;;5009433;28;21033;-86
2023/09/06 07:30:15;;;;;;;3.88;2.65;;;27.80;99.90;;;;;;4993754;28;20209;-90
2023/09/06 07:32:41;;;;;;;3.63;3.25;;;27.70;99.90;;;;;;4993731;28;20758;-86
2023/09/06 07:35:07;;;;;;;5.35;3.70;;;27.20;99.90;;;;;;4993736;28;20264;-86
2023/09/06 07:37:33;;;;;;;3.67;2.92;;;26.50;99.90;;;;;;5009358;28;20690;-87
2023/09/06 07:39:59;;;;;;;3.40;3.10;;;26.20;99.90;;;;;;5026777;28;20179;-87
2023/09/06 07:42:25;;;;;;;3.88;3.47;;;26.00;99.90;;;;;;5009634;28;20260;-87
2023/09/06 07:44:51;;;;;;;4.63;3.25;;;25.50;99.90;;;;;;5009569;28;20226;-85
2023/09/06 07:47:17;;;;;;;3.90;3.33;;;25.60;99.90;;;;;;5025454;28;20218;-87
2023/09/06 07:49:43;;;;;;;4.28;3.30;;;25.70;99.90;;;;;;5009159;28;20222;-87
2023/09/06 07:52:09;;;;;;;3.75;3.13;;;25.40;99.90;;;;;;5009889;28;20182;-86
2023/09/06 07:54:35;;;;;;;7.40;3.30;;;25.40;99.90;;;;;;4992939;28;20223;-87
2023/09/06 07:57:00;;;;;;;3.25;2.90;;;25.30;99.90;;;;;;5008744;28;20671;-86
2023/09/06 07:59:26;;;;;;;4.63;3.22;;;26.40;99.90;;;;;;5040727;28;20221;-87
2023/09/06 08:01:53;;;;;;;4.13;3.65;;;26.10;99.90;;;;;;5009612;28;20276;-87
2023/09/06 08:04:19;;;;;;;4.25;3.28;;;25.60;99.90;;;;;;5009757;28;20190;-86
2023/09/06 08:06:48;;;;;;;5.68;3.45;;;25.90;99.90;;;;;;5009331;28;20215;-87
2023/09/06 08:09:14;;;;;;;4.80;3.17;;;25.60;99.90;;;;;;4992964;28;20218;-88
2023/09/06 08:11:39;;;;;;;4.88;3.70;;;25.10;99.90;;;;;;5008866;28;20606;-87
2023/09/06 08:14:08;;;;;;;3.30;3.00;;;25.00;99.90;;;;;;5009619;28;20218;-87
2023/09/06 08:16:34;;;;;;;3.45;3.13;;;25.70;99.90;;;;;;5009423;28;20186;-86
2023/09/06 08:19:00;;;;;;;5.72;3.53;;;25.60;99.90;;;;;;5010753;28;20186;-88
2023/09/06 08:21:26;;;;;;;5.60;3.53;;;25.70;99.90;;;;;;5009230;28;20284;-86
2023/09/06 08:23:52;;;;;;;4.22;3.33;;;25.60;99.90;;;;;;5009110;28;20687;-89
2023/09/06 08:26:18;;;;;;;4.43;3.65;;;25.70;99.90;;;;;;5009700;28;20706;-88
2023/09/06 08:28:44;;;;;;;5.03;3.58;;;25.70;99.90;;;;;;4991380;28;20242;-87
2023/09/06 08:31:10;;;;;;;3.63;2.85;;;26.00;99.90;;;;;;5010088;28;20183;-88
2023/09/06 08:33:36;;;;;;;4.50;3.42;;;26.30;99.90;;;;;;5025332;28;20210;-87
2023/09/06 08:36:02;;;;;;;4.88;3.63;;;26.70;99.90;;;;;;5009034;28;20214;-88
2023/09/06 08:38:28;;;;;;;5.45;3.53;;;26.40;99.90;;;;;;5009028;28;20260;-88
2023/09/06 08:40:53;;;;;;;4.82;3.13;;;26.10;99.90;;;;;;5009391;28;20829;-88
2023/09/06 08:43:20;;;;;;;4.57;3.20;;;26.60;99.90;;;;;;4993712;28;20241;-88
2023/09/06 08:45:48;;;;;;;3.40;3.05;;;26.90;99.90;;;;;;5025775;28;20280;-89
2023/09/06 08:48:15;;;;;;;4.47;3.15;;;27.50;99.90;;;;;;5041561;28;20245;-89
2023/09/06 08:50:43;;;;;;;4.90;3.70;;;27.20;99.90;;;;;;5025114;28;20211;-89
2023/09/06 08:53:15;;;;;;;5.47;3.40;;;27.30;99.90;;;;;;5009126;28;20202;-88
2023/09/06 08:55:45;;;;;;;3.90;3.25;;;27.30;99.90;;;;;;5025469;28;20186;-88
2023/09/06 08:58:11;;;;;;;8.63;3.65;;;27.50;99.90;;;;;;5026322;28;20268;-87
2023/09/06 09:00:38;;;;;;;5.28;3.15;;;27.80;99.90;;;;;;5009282;28;20214;-89
2023/09/06 09:03:04;;;;;;;5.10;3.53;;;28.00;99.90;;;;;;5025684;28;20230;-89
2023/09/06 09:05:29;;;;;;;2.88;2.67;;;27.60;99.90;;;;;;5009460;28;20293;-89
2023/09/06 09:08:00;;;;;;;4.90;3.45;;;27.60;99.90;;;;;;5008940;28;20218;-89
2023/09/06 09:10:29;;;;;;;3.45;3.15;;;27.20;99.90;;;;;;5011281;28;20221;-89
2023/09/06 09:12:56;;;;;;;4.55;3.03;;;27.10;99.90;;;;;;5029265;28;20217;-89
2023/09/06 09:15:25;;;;;;;5.50;3.05;;;27.10;99.90;;;;;;5028134;28;20329;-86
2023/09/06 09:17:51;;;;;;;4.57;3.30;;;28.40;99.90;;;;;;5028824;28;20210;-87
2023/09/06 09:20:18;;;;;;;3.67;3.30;;;28.20;99.90;;;;;;5028541;28;20206;-88
2023/09/06 09:22:45;;;;;;;4.65;3.42;;;28.30;99.90;;;;;;5028767;28;20190;-87
2023/09/06 09:25:17;;;;;;;7.18;3.78;;;27.70;99.90;;;;;;5029338;28;20553;-89
2023/09/06 09:27:57;;;;;;;3.85;3.47;;;27.40;99.90;;;;;;5029007;28;20222;-87
2023/09/06 09:30:24;;;;;;;5.65;3.35;;;27.70;99.90;;;;;;5028623;28;20242;-87
2023/09/06 09:33:01;;;;;;;3.92;3.35;;;27.60;99.90;;;;;;5029333;28;20214;-89
2023/09/06 09:35:27;;;;;;;5.68;3.20;;;28.10;99.90;;;;;;5030292;28;20202;-87
2023/09/06 09:37:53;;;;;;;3.50;3.20;;;28.20;99.90;;;;;;5012512;28;20218;-86
2023/09/06 09:40:34;;;;;;;4.88;3.60;;;27.90;99.90;;;;;;4996814;28;20183;-89
2023/09/06 09:43:04;;;;;;;3.55;3.25;;;27.90;99.90;;;;;;5029971;28;20202;-87
2023/09/06 09:45:45;;;;;;;6.07;3.30;;;28.20;99.90;;;;;;5028117;28;20257;-87
2023/09/06 09:48:11;;;;;;;5.43;3.15;;;28.50;99.90;;;;;;5044466;28;20676;-87
2023/09/06 09:50:41;;;;;;;4.28;2.90;;;29.20;99.90;;;;;;5027955;28;20695;-86
2023/09/06 09:53:09;;;;;;;4.50;3.45;;;28.80;99.90;;;;;;5012271;28;20260;-87
2023/09/06 09:55:41;;;;;;;5.10;2.90;;;28.50;99.90;;;;;;5027800;28;20194;-86
2023/09/06 09:58:09;;;;;;;4.65;3.05;;;28.70;99.90;;;;;;5029915;28;20647;-86
2023/09/06 10:00:39;;;;;;;3.35;3.03;;;28.60;99.90;;;;;;5027711;28;20215;-86
2023/09/06 10:03:05;;;;;;;4.07;3.13;;;28.60;99.90;;;;;;5012253;28;20297;-86
2023/09/06 10:05:32;;;;;;;3.90;3.50;;;28.60;99.90;;;;;;5010828;28;20206;-87
2023/09/06 10:08:04;;;;;;;2.92;2.60;;;28.70;99.90;;;;;;5010636;28;20305;-88
2023/09/06 10:10:33;;;;;;;4.32;2.90;;;29.40;99.90;;;;;;5027968;28;20691;-87
2023/09/06 10:13:06;;;;;;;4.50;3.67;;;30.00;99.90;;;;;;5028084;28;20280;-87
2023/09/06 10:15:33;;;;;;;3.88;2.70;;;30.70;99.90;;;;;;5028129;28;20222;-87
2023/09/06 10:17:59;;;;;;;3.42;2.83;;;30.70;99.90;;;;;;5011310;28;20214;-88
2023/09/06 10:20:26;;;;;;;4.03;3.05;;;30.80;99.90;;;;;;5027640;28;20218;-86
2023/09/06 10:22:55;;;;;;;3.25;2.45;;;30.40;99.90;;;;;;4995218;28;21023;-85
2023/09/06 10:25:22;;;;;;;4.22;2.42;;;30.30;99.90;;;;;;5027732;28;20631;-87
2023/09/06 10:27:49;;;;;;;7.57;2.40;;;29.70;99.90;;;;;;4994681;28;20683;-85
2023/09/06 10:30:19;;;;;;;3.45;2.35;;;29.50;99.90;;;;;;5026923;28;20698;-87
2023/09/06 10:32:46;;;;;;;3.65;2.55;;;29.70;99.90;;;;;;5026237;28;20242;-86
2023/09/06 10:35:30;;;;;;;3.60;2.70;;;29.60;99.90;;;;;;5010130;28;20696;-88
2023/09/06 10:38:04;;;;;;;4.43;2.60;;;29.00;99.90;;;;;;5026960;28;20214;-85
2023/09/06 10:40:51;;;;;;;3.97;2.47;;;29.30;99.90;;;;;;5027294;28;20189;-86
2023/09/06 10:43:23;;;;;;;4.38;2.30;;;30.20;99.90;;;;;;5026482;28;20203;-84
2023/09/06 10:46:07;;;;;;;3.00;1.98;;;30.90;99.90;;;;;;5026816;28;20946;-84
2023/09/06 10:48:32;;;;;;;5.65;2.58;;;31.20;99.90;;;;;;5042307;28;20250;-88
2023/09/06 10:51:04;;;;;;;4.70;2.45;;;30.60;99.90;;;;;;5027326;28;20230;-85
2023/09/06 10:53:30;;;;;;;2.30;2.10;;;30.30;99.90;;;;;;5027959;28;20585;-87
2023/09/06 10:55:58;;;;;;;2.63;2.05;;;29.90;99.90;;;;;;5026974;28;20717;-85
2023/09/06 10:58:24;;;;;;;3.10;2.30;;;29.60;99.90;;;;;;5011112;28;20249;-85
2023/09/06 11:01:18;;;;;;;4.13;2.15;;;29.60;99.90;;;;;;5010379;28;20332;-85
2023/09/06 11:03:51;;;;;;;3.35;2.30;;;29.60;99.90;;;;;;5009841;28;20713;-86
2023/09/06 11:06:18;;;;;;;2.42;2.22;;;30.00;99.90;;;;;;5025950;28;20305;-86
2023/09/06 11:08:46;;;;;;;2.90;2.42;;;29.50;99.90;;;;;;5026276;28;20324;-85
2023/09/06 11:11:14;;;;;;;3.72;2.45;;;29.60;99.90;;;;;;5025845;28;20235;-86
2023/09/06 11:13:42;;;;;;;2.17;1.98;;;29.50;99.90;;;;;;5026468;28;20289;-84
2023/09/06 11:16:18;;;;;;;2.20;2.00;;;29.80;99.90;;;;;;5026644;28;20190;-84
2023/09/06 11:18:48;;;;;;;3.53;2.40;;;29.20;99.90;;;;;;5025098;28;20269;-84
2023/09/06 11:21:22;;;;;;;1.63;1.52;;;29.30;99.90;;;;;;5026257;28;20258;-85
2023/09/06 11:23:53;;;;;;;2.28;2.08;;;29.40;99.90;;;;;;5025810;28;20216;-85
2023/09/06 11:26:22;;;;;;;2.25;2.00;;;29.30;99.90;;;;;;5026177;28;20337;-85
2023/09/06 11:28:58;;;;;;;2.67;2.17;;;29.10;99.90;;;;;;5010180;28;20207;-84
2023/09/06 11:31:29;;;;;;;3.05;1.70;;;29.10;99.90;;;;;;5012821;28;20186;-85
2023/09/06 11:34:01;;;;;;;2.63;2.03;;;29.00;99.90;;;;;;5027460;28;20207;-84
2023/09/06 11:36:36;;;;;;;3.00;2.70;;;28.80;99.90;;;;;;5027509;28;20213;-84
2023/09/06 11:39:28;;;;;;;3.25;2.30;;;28.90;99.90;;;;;;5025433;28;20225;-84
2023/09/06 11:41:54;;;;;;;3.63;1.92;;;28.80;99.90;;;;;;5012920;28;20218;-84
2023/09/06 11:44:23;;;;;;;2.50;1.92;;;28.90;99.90;;;;;;5008697;28;20210;-84
2023/09/06 11:46:49;;;;;;;2.60;1.90;;;28.80;99.90;;;;;;5012509;28;20202;-84
2023/09/06 11:49:17;;;;;;;2.42;1.90;;;28.90;99.90;;;;;;5029443;28;20770;-83
2023/09/06 11:51:46;;;;;;;1.80;1.70;;;28.70;99.90;;;;;;5013256;28;20737;-84
2023/09/06 11:54:12;;;;;;;1.95;1.77;;;28.80;99.90;;;;;;4996324;28;20298;-83
2023/09/06 11:56:42;;;;;;;2.42;1.33;;;28.90;99.90;;;;;;5029835;28;20309;-83
2023/09/06 11:59:12;;;;;;;3.50;2.13;;;29.20;99.90;;;;;;5029435;28;20619;-83
2023/09/06 12:01:40;;;;;;;3.47;1.70;;;29.40;99.90;;;;;;4998493;28;20187;-84
2023/09/06 12:04:15;;;;;;;1.80;1.58;;;29.60;99.90;;;;;;5030108;28;20175;-84
2023/09/06 12:06:41;;;;;;;2.30;1.60;;;29.40;99.90;;;;;;5013431;28;20220;-84
2023/09/06 12:09:12;;;;;;;1.80;1.70;;;29.40;99.90;;;;;;5028828;28;20274;-83
2023/09/06 12:11:39;;;;;;;2.17;1.67;;;29.10;99.90;;;;;;4996663;28;20291;-85
2023/09/06 12:14:05;;;;;;;3.45;1.60;;;29.00;99.90;;;;;;5012878;28;20679;-85
2023/09/06 12:16:31;;;;;;;3.28;1.92;;;29.00;99.90;;;;;;5013269;28;20183;-83
2023/09/06 12:18:57;;;;;;;2.05;1.85;;;29.10;99.90;;;;;;5028622;28;20679;-84
2023/09/06 12:21:22;;;;;;;2.00;1.80;;;29.20;99.90;;;;;;5012324;28;20222;-84
2023/09/06 12:23:48;;;;;;;1.63;1.48;;;29.10;99.90;;;;;;5012601;28;20218;-83
2023/09/06 12:26:16;;;;;;;1.95;1.75;;;29.10;99.90;;;;;;5011928;28;20207;-84
2023/09/06 12:28:42;;;;;;;1.65;1.52;;;29.10;99.90;;;;;;5012108;28;20246;-84
2023/09/06 12:31:08;;;;;;;2.55;1.50;;;29.10;99.90;;;;;;5012409;28;20264;-83
2023/09/06 12:33:34;;;;;;;3.40;1.38;;;28.90;99.90;;;;;;4996005;28;20755;-84
2023/09/06 12:36:00;;;;;;;1.52;1.40;;;28.80;99.90;;;;;;5022060;28;20243;-83
2023/09/06 12:38:31;;;;;;;1.40;1.30;;;28.90;99.90;;;;;;5007268;28;20221;-83
2023/09/06 12:40:58;;;;;;;1.75;1.35;;;28.90;99.90;;;;;;5023709;28;20221;-83
2023/09/06 12:43:26;;;;;;;3.30;1.50;;;29.00;99.90;;;;;;5025101;28;20179;-83